Time;durP1;ratioP1;P1;durP2;ratioP2;P2;SDS_P1;SDS_P2;PMS_P1;PMS_P2;Temp;Humidity;BMP_temperature;BMP_pressure;BME280_temperature;BME280_humidity;BME280_pressure;Samples;Min_cycle;Max_cycle;Signal;HPM_P1;HPM_P2
2022/02/27 00:01:01;;;;;;;47.50;32.10;;;102.40;2227.20;;;;;;5010929;28;20030;-78
2022/02/27 00:03:27;;;;;;;50.40;34.97;;;77.60;2227.20;;;;;;5010556;28;20424;-84
2022/02/27 00:05:52;;;;;;;63.50;42.75;;;77.50;2227.20;;;;;;5011472;28;20051;-82
2022/02/27 00:08:18;;;;;;;49.33;35.60;;;77.60;2227.20;;;;;;5011738;28;20061;-78
2022/02/27 00:10:44;;;;;;;54.33;35.97;;;77.60;2227.20;;;;;;5010391;28;20030;-78
2022/02/27 00:13:10;;;;;;;54.22;36.70;;;77.60;2227.20;;;;;;5014969;28;20385;-79
2022/02/27 00:15:35;;;;;;;57.67;39.78;;;77.60;2227.20;;;;;;5014799;28;20033;-79
2022/02/27 00:18:01;;;;;;;59.90;38.83;;;77.70;2227.20;;;;;;5014698;28;20037;-78
2022/02/27 00:20:27;;;;;;;57.50;38.67;;;102.40;2227.20;;;;;;5014765;28;20025;-78
2022/02/27 00:22:52;;;;;;;56.67;37.60;;;102.40;2227.20;;;;;;5014507;28;20057;-80
2022/02/27 00:25:18;;;;;;;57.78;37.25;;;102.40;2227.20;;;;;;5015816;28;20029;-77
2022/02/27 00:27:44;;;;;;;52.47;32.92;;;102.50;2227.20;;;;;;5016543;28;20496;-78
2022/02/27 00:30:10;;;;;;;53.78;34.47;;;;;;;;;;5014660;28;20022;-78
2022/02/27 00:32:37;;;;;;;53.65;33.30;;;;;;;;;;5015728;28;20111;-79
2022/02/27 00:35:04;;;;;;;54.30;36.58;;;;;;;;;;5015501;28;20026;-79
2022/02/27 00:37:31;;;;;;;51.83;31.35;;;;;;;;;;5015577;28;20033;-78
2022/02/27 00:39:57;;;;;;;45.53;28.13;;;;;;;;;;5015303;28;20116;-77
2022/02/27 00:42:23;;;;;;;42.95;28.00;;;;;;;;;;5015806;28;20084;-78
2022/02/27 00:44:49;;;;;;;41.92;27.33;;;;;;;;;;5015891;28;20477;-78
2022/02/27 00:47:15;;;;;;;45.13;32.20;;;;;;;;;;5014230;28;20503;-78
2022/02/27 00:49:41;;;;;;;45.03;31.05;;;;;;;;;;5015501;28;20058;-78
2022/02/27 00:52:07;;;;;;;48.03;31.83;;;;;;;;;;5015361;28;20580;-78
2022/02/27 00:54:33;;;;;;;44.33;30.90;;;;;;;;;;5014053;28;20024;-80
2022/02/27 00:56:59;;;;;;;47.30;33.15;;;;;;;;;;5014019;28;20129;-81
2022/02/27 00:59:25;;;;;;;47.88;31.98;;;;;;;;;;5015254;28;20022;-78
2022/02/27 01:01:51;;;;;;;48.97;33.75;;;;;;;;;;5014218;28;20481;-79
2022/02/27 01:04:18;;;;;;;51.67;33.15;;;;;;;;;;5014137;28;20117;-79
2022/02/27 01:06:44;;;;;;;54.97;37.30;;;;;;;;;;5015446;28;20054;-77
2022/02/27 01:09:10;;;;;;;55.20;36.17;;;;;;;;;;5015420;28;20030;-78
2022/02/27 01:11:36;;;;;;;52.00;33.40;;;;;;;;;;5015503;28;20040;-78
2022/02/27 01:14:03;;;;;;;53.85;35.95;;;;;;;;;;5015066;28;20029;-80
2022/02/27 01:16:30;;;;;;;49.85;34.20;;;;;;;;;;5015083;28;20040;-78
2022/02/27 01:18:56;;;;;;;52.47;34.65;;;;;;;;;;5013783;28;20045;-79
2022/02/27 01:21:22;;;;;;;48.72;34.13;;;;;;;;;;5015145;28;20022;-79
2022/02/27 01:23:48;;;;;;;48.80;34.65;;;;;;;;;;5015495;28;20041;-77
2022/02/27 01:26:15;;;;;;;45.53;33.35;;;;;;;;;;5014236;28;20026;-78
2022/02/27 01:28:41;;;;;;;40.97;29.00;;;;;;;;;;5015775;28;20479;-79
2022/02/27 01:31:07;;;;;;;45.20;30.05;;;;;;;;;;5015506;28;20101;-79
2022/02/27 01:33:34;;;;;;;41.75;28.75;;;;;;;;;;5014968;28;20024;-78
2022/02/27 01:36:00;;;;;;;49.75;33.60;;;;;;;;;;5013829;28;20041;-78
2022/02/27 01:38:27;;;;;;;47.58;31.48;;;;;;;;;;5015183;28;20492;-77
2022/02/27 01:40:53;;;;;;;45.13;31.70;;;;;;;;;;5014116;28;20054;-78
2022/02/27 01:43:19;;;;;;;48.05;32.63;;;;;;;;;;5014436;28;20025;-78
2022/02/27 01:45:45;;;;;;;46.00;32.28;;;;;;;;;;5014976;28;20026;-75
2022/02/27 01:48:11;;;;;;;49.88;35.13;;;;;;;;;;5011957;28;20073;-75
2022/02/27 01:50:37;;;;;;;54.25;36.50;;;;;;;;;;5013659;28;20026;-76
2022/02/27 01:53:03;;;;;;;55.35;36.80;;;;;;;;;;5013345;28;20362;-75
2022/02/27 01:55:29;;;;;;;54.08;36.58;;;;;;;;;;5014137;28;20014;-76
2022/02/27 01:57:55;;;;;;;50.22;33.85;;;;;;;;;;5012107;28;20049;-77
2022/02/27 02:00:21;;;;;;;64.93;43.33;;;;;;;;;;5013465;28;20022;-78
2022/02/27 02:02:48;;;;;;;67.07;43.95;;;;;;;;;;5013141;28;20033;-75
2022/02/27 02:05:15;;;;;;;71.90;45.72;;;;;;;;;;5012734;28;20049;-77
2022/02/27 02:07:41;;;;;;;78.32;50.38;;;;;;;;;;5014460;28;20093;-77
2022/02/27 02:10:08;;;;;;;63.78;42.38;;;;;;;;;;5014071;28;20022;-77
2022/02/27 02:12:34;;;;;;;69.90;45.95;;;;;;;;;;5013513;28;20022;-76
2022/02/27 02:15:00;;;;;;;67.47;44.58;;;;;;;;;;5015651;28;20018;-76
2022/02/27 02:17:27;;;;;;;64.63;39.67;;;;;;;;;;5013316;28;20413;-76
2022/02/27 02:19:53;;;;;;;64.30;40.60;;;;;;;;;;5013339;28;20026;-77
2022/02/27 02:22:19;;;;;;;51.70;35.15;;;;;;;;;;5012234;28;20033;-75
2022/02/27 02:24:45;;;;;;;53.72;36.22;;;;;;;;;;5013520;28;20030;-76
2022/02/27 02:27:12;;;;;;;54.53;37.50;;;;;;;;;;5013480;28;20022;-75
2022/02/27 02:29:38;;;;;;;50.42;35.67;;;;;;;;;;5013443;28;20018;-76
2022/02/27 02:32:04;;;;;;;49.42;32.72;;;;;;;;;;5012124;28;20018;-76
2022/02/27 02:34:31;;;;;;;58.47;38.35;;;;;;;;;;5012797;28;20056;-77
2022/02/27 02:36:57;;;;;;;53.13;36.38;;;;;;;;;;5012249;28;20034;-76
2022/02/27 02:39:27;;;;;;;50.58;34.72;;;;;;;;;;5013161;28;20026;-75
2022/02/27 02:41:54;;;;;;;47.78;32.22;;;;;;;;;;5013311;28;20026;-77
2022/02/27 02:44:20;;;;;;;43.63;29.77;;;;;;;;;;5011980;28;20052;-76
2022/02/27 02:46:46;;;;;;;50.50;36.13;;;;;;;;;;5013361;28;20030;-77
2022/02/27 02:49:13;;;;;;;45.15;34.30;;;;;;;;;;5012997;28;20022;-76
2022/02/27 02:51:40;;;;;;;54.58;37.45;;;;;;;;;;5011888;28;20096;-77
2022/02/27 02:54:07;;;;;;;54.47;42.40;;;;;;;;;;5012906;28;20145;-77
2022/02/27 02:56:33;;;;;;;53.90;37.97;;;;;;;;;;5013242;28;20069;-76
2022/02/27 02:58:59;;;;;;;50.42;33.75;;;;;;;;;;5012972;28;20030;-76
2022/02/27 03:01:26;;;;;;;55.83;38.38;;;;;;;;;;5012809;28;20049;-77
2022/02/27 03:03:52;;;;;;;53.70;34.90;;;;;;;;;;5011495;28;20109;-77
2022/02/27 03:06:18;;;;;;;53.60;37.63;;;;;;;;;;5012769;28;20104;-78
2022/02/27 03:08:46;;;;;;;51.13;36.63;;;;;;;;;;5011404;28;20477;-77
2022/02/27 03:11:13;;;;;;;52.42;35.10;;;;;;;;;;5012835;28;20117;-77
2022/02/27 03:13:39;;;;;;;54.35;38.63;;;;;;;;;;5012335;28;20385;-77
2022/02/27 03:16:05;;;;;;;50.22;35.65;;;;;;;;;;5011202;28;20477;-76
2022/02/27 03:18:32;;;;;;;54.13;37.65;;;;;;;;;;5012514;28;20424;-76
2022/02/27 03:21:03;;;;;;;53.53;37.97;;;;;;;;;;5011394;28;20025;-77
2022/02/27 03:23:30;;;;;;;57.03;38.05;;;;;;;;;;5012554;28;20022;-76
2022/02/27 03:25:57;;;;;;;55.42;39.72;;;;;;;;;;5011316;28;20030;-77
2022/02/27 03:28:23;;;;;;;56.05;40.35;;;;;;;;;;5012394;28;20018;-76
2022/02/27 03:30:49;;;;;;;51.47;37.80;;;;;;;;;;5012195;28;20083;-76
2022/02/27 03:33:15;;;;;;;59.63;42.33;;;;;;;;;;5012223;28;20089;-75
2022/02/27 03:35:41;;;;;;;60.78;41.10;;;;;;;;;;5011985;28;20053;-76
2022/02/27 03:38:07;;;;;;;61.58;43.00;;;;;;;;;;5012346;28;20044;-76
2022/02/27 03:40:34;;;;;;;59.88;41.63;;;;;;;;;;5011876;28;20448;-77
2022/02/27 03:43:00;;;;;;;58.28;40.30;;;;;;;;;;5012458;28;20105;-75
2022/02/27 03:45:26;;;;;;;63.95;44.25;;;;;;;;;;5010898;28;20092;-76
2022/02/27 03:47:54;;;;;;;62.33;44.20;;;;;;;;;;5010730;28;20022;-77
2022/02/27 03:50:21;;;;;;;67.80;45.33;;;;;;;;;;5011917;28;20103;-77
2022/02/27 03:52:47;;;;;;;75.82;49.92;;;;;;;;;;5010775;28;20076;-76
2022/02/27 03:55:14;;;;;;;101.40;63.15;;;;;;;;;;5011755;28;20022;-77
2022/02/27 03:57:40;;;;;;;112.05;70.38;;;;;;;;;;5010602;28;20038;-76
2022/02/27 04:00:08;;;;;;;88.93;59.53;;;;;;;;;;5012554;28;20089;-76
2022/02/27 04:02:34;;;;;;;76.28;52.95;;;;;;;;;;5012056;28;20022;-76
2022/02/27 04:05:00;;;;;;;81.05;52.67;;;;;;;;;;5011615;28;20481;-76
2022/02/27 04:07:28;;;;;;;71.13;49.33;;;;;;;;;;5011819;28;20049;-77
2022/02/27 04:09:54;;;;;;;75.35;50.53;;;;;;;;;;5010744;28;20052;-75
2022/02/27 04:12:20;;;;;;;73.25;48.60;;;;;;;;;;5012033;28;20029;-76
2022/02/27 04:14:46;;;;;;;66.55;47.10;;;;;;;;;;5010566;28;20023;-77
2022/02/27 04:17:12;;;;;;;76.80;50.60;;;;;;;;;;5010376;28;20485;-77
2022/02/27 04:19:38;;;;;;;67.00;45.65;;;;;;;;;;5011895;28;20092;-76
2022/02/27 04:22:05;;;;;;;71.50;47.00;;;;;;;;;;5012062;28;20026;-77
2022/02/27 04:24:31;;;;;;;71.45;46.28;;;;;;;;;;5010511;28;20032;-76
2022/02/27 04:26:58;;;;;;;65.72;43.95;;;;;;;;;;5012228;28;20022;-76
2022/02/27 04:29:24;;;;;;;64.97;44.92;;;;;;;;;;5011838;28;20026;-75
2022/02/27 04:31:50;;;;;;;71.40;44.20;;;;;;;;;;5011798;28;20022;-76
2022/02/27 04:34:17;;;;;;;61.22;41.55;;;;;;;;;;5011879;28;20022;-76
2022/02/27 04:36:43;;;;;;;65.97;40.63;;;;;;;;;;5011680;28;20042;-77
2022/02/27 04:39:09;;;;;;;59.40;40.65;;;;;;;;;;5011550;28;20053;-75
2022/02/27 04:41:36;;;;;;;59.63;38.95;;;;;;;;;;5011752;28;20033;-76
2022/02/27 04:44:02;;;;;;;59.83;38.72;;;;;;;;;;5010321;28;20030;-77
2022/02/27 04:46:28;;;;;;;51.00;37.33;;;;;;;;;;5011345;28;20022;-77
2022/02/27 04:48:54;;;;;;;56.58;39.85;;;;;;;;;;5011338;28;20097;-76
2022/02/27 04:51:20;;;;;;;70.50;44.42;;;;;;;;;;5011760;28;20073;-77
2022/02/27 04:53:47;;;;;;;62.08;40.92;;;;;;;;;;5011215;28;20050;-75
2022/02/27 04:56:13;;;;;;;63.15;40.95;;;;;;;;;;5011460;28;20045;-76
2022/02/27 04:58:39;;;;;;;55.95;37.70;;;;;;;;;;5011594;28;20466;-76
2022/02/27 05:01:05;;;;;;;56.92;37.10;;;;;;;;;;5014879;28;20032;-76
2022/02/27 05:03:31;;;;;;;55.97;37.40;;;;;;;;;;5014684;28;20022;-76
2022/02/27 05:05:57;;;;;;;55.65;34.22;;;;;;;;;;5015177;28;20128;-76
2022/02/27 05:08:23;;;;;;;54.15;37.97;;;;;;;;;;5014956;28;20034;-77
2022/02/27 05:10:49;;;;;;;48.42;33.78;;;;;;;;;;5014935;28;20030;-77
2022/02/27 05:13:15;;;;;;;45.35;32.35;;;;;;;;;;5015206;28;20025;-77
2022/02/27 05:15:41;;;;;;;46.20;30.35;;;;;;;;;;5014456;28;20102;-77
2022/02/27 05:18:08;;;;;;;50.47;33.03;;;;;;;;;;5015022;28;20033;-76
2022/02/27 05:20:34;;;;;;;49.65;33.58;;;;;;;;;;5014896;28;20026;-76
2022/02/27 05:23:00;;;;;;;46.35;32.92;;;;;;;;;;5013420;28;20068;-76
2022/02/27 05:25:26;;;;;;;49.03;34.15;;;;;;;;;;5013443;28;20108;-76
2022/02/27 05:27:54;;;;;;;46.95;31.90;;;;;;;;;;5014545;28;20045;-77
2022/02/27 05:30:21;;;;;;;51.78;35.83;;;;;;;;;;5014310;28;20029;-76
2022/02/27 05:32:47;;;;;;;49.97;34.78;;;;;;;;;;5014801;28;20092;-76
2022/02/27 05:35:13;;;;;;;51.30;36.08;;;;;;;;;;5014596;28;20022;-77
2022/02/27 05:37:39;;;;;;;50.22;35.85;;;;;;;;;;5013272;28;20092;-77
2022/02/27 05:40:06;;;;;;;49.25;32.60;;;;;;;;;;5014074;28;21139;-76
2022/02/27 05:42:32;;;;;;;49.10;33.05;;;;;;;;;;5013169;28;20057;-76
2022/02/27 05:44:59;;;;;;;53.08;36.17;;;;;;;;;;5013221;28;20018;-77
2022/02/27 05:47:25;;;;;;;44.97;32.85;;;;;;;;;;5013017;28;20524;-76
2022/02/27 05:49:51;;;;;;;42.78;29.75;;;;;;;;;;5013908;28;20365;-76
2022/02/27 05:52:18;;;;;;;44.35;33.53;;;;;;;;;;5014175;28;20462;-77
2022/02/27 05:54:44;;;;;;;47.42;32.13;;;;;;;;;;5014268;28;20110;-77
2022/02/27 05:57:11;;;;;;;40.67;27.80;;;;;;;;;;5014370;28;20034;-76
2022/02/27 05:59:37;;;;;;;40.40;29.92;;;;;;;;;;5014138;28;20026;-77
2022/02/27 06:02:03;;;;;;;41.92;30.13;;;;;;;;;;5012951;28;20025;-76
2022/02/27 06:04:29;;;;;;;35.30;24.30;;;;;;;;;;5012829;28;20072;-76
2022/02/27 06:06:55;;;;;;;38.28;27.75;;;;;;;;;;5014073;28;20489;-76
2022/02/27 06:09:21;;;;;;;41.85;30.38;;;;;;;;;;5013817;28;20420;-77
2022/02/27 06:11:48;;;;;;;40.47;28.02;;;;;;;;;;5013896;28;20018;-77
2022/02/27 06:14:14;;;;;;;32.97;24.88;;;;;;;;;;5014269;28;20026;-77
2022/02/27 06:16:40;;;;;;;37.15;24.42;;;;;;;;;;5013703;28;20116;-77
2022/02/27 06:19:06;;;;;;;38.13;27.42;;;;;;;;;;5013911;28;20029;-77
2022/02/27 06:21:32;;;;;;;36.10;25.80;;;;;;;;;;5013511;28;21133;-77
2022/02/27 06:23:58;;;;;;;36.60;26.98;;;;;;;;;;5012571;28;20140;-77
2022/02/27 06:26:24;;;;;;;34.03;24.42;;;;;;;;;;5013532;28;20022;-77
2022/02/27 06:28:50;;;;;;;35.22;23.75;;;;;;;;;;5013582;28;20026;-76
2022/02/27 06:31:17;;;;;;;31.35;22.67;;;;;;;;;;5012074;28;20029;-77
2022/02/27 06:33:44;;;;;;;37.25;25.35;;;;;;;;;;5013411;28;20097;-76
2022/02/27 06:36:10;;;;;;;32.17;23.55;;;;;;;;;;5013862;28;20064;-77
2022/02/27 06:38:36;;;;;;;36.03;24.50;;;;;;;;;;5013849;28;20105;-77
2022/02/27 06:41:03;;;;;;;37.08;24.63;;;;;;;;;;5012105;28;20022;-76
2022/02/27 06:43:32;;;;;;;35.17;26.05;;;;;;;;;;5013220;28;20018;-76
2022/02/27 06:45:59;;;;;;;32.20;22.50;;;;;;;;;;5013532;28;20533;-77
2022/02/27 06:48:25;;;;;;;37.38;25.05;;;;;;;;;;5011925;28;20053;-77
2022/02/27 06:50:51;;;;;;;37.22;27.00;;;;;;;;;;5011774;28;20061;-77
2022/02/27 06:53:17;;;;;;;34.60;25.13;;;;;;;;;;5012741;28;20018;-77
2022/02/27 06:55:43;;;;;;;40.70;27.65;;;;;;;;;;5012910;28;20109;-77
2022/02/27 06:58:09;;;;;;;38.20;28.20;;;;;;;;;;5013408;28;20156;-77
2022/02/27 07:00:35;;;;;;;40.60;30.23;;;;;;;;;;5011584;28;20025;-78
2022/02/27 07:03:02;;;;;;;43.63;29.23;;;;;;;;;;5012612;28;20026;-77
2022/02/27 07:05:28;;;;;;;41.38;27.98;;;;;;;;;;5012562;28;20077;-77
2022/02/27 07:07:54;;;;;;;41.22;27.58;;;;;;;;;;5012098;28;20026;-77
2022/02/27 07:10:20;;;;;;;38.47;28.20;;;;;;;;;;5012607;28;20026;-77
2022/02/27 07:12:47;;;;;;;35.22;26.33;;;;;;;;;;5012971;28;20029;-77
2022/02/27 07:15:13;;;;;;;34.33;25.13;;;;;;;;;;5011709;28;20024;-77
2022/02/27 07:17:39;;;;;;;40.70;29.73;;;;;;;;;;5012815;28;20037;-76
2022/02/27 07:20:06;;;;;;;44.58;31.58;;;;;;;;;;5011434;28;20022;-77
2022/02/27 07:22:35;;;;;;;36.08;28.45;;;;;;;;;;5012079;28;20018;-77
2022/02/27 07:25:01;;;;;;;36.65;25.58;;;;;;;;;;5013503;28;20030;-75
2022/02/27 07:27:27;;;;;;;31.25;23.48;;;;;;;;;;5011506;28;20030;-77
2022/02/27 07:29:53;;;;;;;33.83;24.42;;;;;;;;;;5012537;28;20026;-76
2022/02/27 07:32:19;;;;;;;40.60;27.70;;;;;;;;;;5013065;28;20105;-77
2022/02/27 07:34:45;;;;;;;37.97;25.55;;;;;;;;;;5012601;28;20021;-76
2022/02/27 07:37:11;;;;;;;31.83;20.65;;;;;;;;;;5013235;28;20034;-75
2022/02/27 07:39:37;;;;;;;34.40;24.42;;;;;;;;;;5013055;28;20041;-77
2022/02/27 07:42:03;;;;;;;40.55;26.20;;;;;;;;;;5011496;28;20011;-77
2022/02/27 07:44:29;;;;;;;36.97;24.80;;;;;;;;;;5012758;28;20022;-77
2022/02/27 07:46:55;;;;;;;32.60;23.80;;;;;;;;;;5013058;28;20026;-77
2022/02/27 07:49:22;;;;;;;37.65;26.70;;;;;;;;;;5011390;28;20040;-77
2022/02/27 07:51:48;;;;;;;36.50;26.58;;;;;;;;;;5011853;28;20462;-76
2022/02/27 07:54:14;;;;;;;40.90;28.92;;;;;;;;;;5012267;28;20404;-77
2022/02/27 07:56:40;;;;;;;39.22;27.50;;;;;;;;;;5012059;28;20104;-77
2022/02/27 07:59:06;;;;;;;29.92;20.92;;;;;;;;;;5012387;28;20018;-77
2022/02/27 08:01:33;;;;;;;27.75;18.80;;;;;;;;;;5010407;28;20057;-77
2022/02/27 08:03:59;;;;;;;27.48;19.25;;;;;;;;;;5012545;28;20014;-76
2022/02/27 08:06:25;;;;;;;23.33;15.98;;;;;;;;;;5012105;28;20049;-76
2022/02/27 08:08:53;;;;;;;21.20;15.98;;;;;;;;;;5012380;28;20399;-77
2022/02/27 08:11:19;;;;;;;21.85;15.88;;;;;;;;;;5012034;28;20064;-76
2022/02/27 08:13:45;;;;;;;27.02;17.98;;;;;;;;;;5012540;28;20041;-77
2022/02/27 08:16:11;;;;;;;22.60;16.30;;;;;;;;;;5011025;28;20069;-77
2022/02/27 08:18:37;;;;;;;22.70;15.70;;;;;;;;;;5011923;28;20529;-77
2022/02/27 08:21:04;;;;;;;25.70;17.05;;;;;;;;;;5012037;28;20373;-78
2022/02/27 08:23:30;;;;;;;27.00;16.90;;;;;;;;;;5011039;28;20477;-76
2022/02/27 08:25:59;;;;;;;20.80;15.23;;;;;;;;;;5012093;28;20029;-76
2022/02/27 08:28:25;;;;;;;20.05;15.48;;;;;;;;;;5012291;28;20014;-75
2022/02/27 08:30:51;;;;;;;21.45;15.52;;;;;;;;;;5011870;28;20029;-77
2022/02/27 08:33:17;;;;;;;20.33;15.55;;;;;;;;;;5013782;28;20057;-77
2022/02/27 08:35:43;;;;;;;20.30;14.27;;;;;;;;;;5016390;28;20026;-77
2022/02/27 08:38:09;;;;;;;19.90;15.45;;;;;;;;;;5014516;28;20100;-77
2022/02/27 08:40:35;;;;;;;23.73;16.45;;;;;;;;;;5015850;28;20018;-77
2022/02/27 08:43:02;;;;;;;24.40;15.85;;;;;;;;;;5015200;28;20440;-77
2022/02/27 08:45:29;;;;;;;22.25;16.20;;;;;;;;;;5015557;28;20029;-77
2022/02/27 08:47:55;;;;;;;23.60;15.98;;;;;;;;;;5015568;28;20029;-76
2022/02/27 08:50:22;;;;;;;25.55;15.88;;;;;;;;;;5015328;28;20021;-76
2022/02/27 08:52:48;;;;;;;20.75;14.90;;;;;;;;;;5014947;28;20034;-77
2022/02/27 08:55:17;;;;;;;21.08;15.90;;;;;;;;;;5013787;28;20017;-77
2022/02/27 08:57:44;;;;;;;20.98;16.05;;;;;;;;;;5014011;28;20034;-76
2022/02/27 09:00:11;;;;;;;19.77;15.73;;;;;;;;;;5015084;28;20057;-76
2022/02/27 09:02:37;;;;;;;20.65;16.00;;;;;;;;;;5015286;28;20465;-77
2022/02/27 09:05:05;;;;;;;19.17;14.02;;;;;;;;;;5015211;28;20018;-78
2022/02/27 09:07:31;;;;;;;23.88;15.00;;;;;;;;;;5013861;28;20053;-77
2022/02/27 09:09:57;;;;;;;20.17;15.55;;;;;;;;;;5015458;28;20104;-76
2022/02/27 09:12:23;;;;;;;20.13;14.85;;;;;;;;;;5015003;28;20030;-76
2022/02/27 09:14:50;;;;;;;23.05;16.95;;;;;;;;;;5013673;28;20025;-76
2022/02/27 09:17:16;;;;;;;25.95;16.70;;;;;;;;;;5014557;28;20040;-76
2022/02/27 09:19:42;;;;;;;23.42;18.02;;;;;;;;;;5015088;28;20033;-76
2022/02/27 09:22:08;;;;;;;18.95;14.27;;;;;;;;;;5013626;28;20065;-77
2022/02/27 09:24:34;;;;;;;29.40;16.95;;;;;;;;;;5013604;28;20018;-77
2022/02/27 09:27:00;;;;;;;24.15;16.70;;;;;;;;;;5012844;28;20026;-77
2022/02/27 09:29:26;;;;;;;23.42;16.13;;;;;;;;;;5014640;28;20022;-77
2022/02/27 09:31:54;;;;;;;21.23;16.35;;;;;;;;;;5014266;28;20026;-77
2022/02/27 09:34:20;;;;;;;18.65;14.15;;;;;;;;;;5014443;28;20018;-77
2022/02/27 09:36:46;;;;;;;22.48;15.02;;;;;;;;;;5014500;28;20507;-77
2022/02/27 09:39:13;;;;;;;18.48;14.07;;;;;;;;;;5014179;28;20489;-75
2022/02/27 09:41:39;;;;;;;18.15;12.25;;;;;;;;;;5014202;28;20018;-77
2022/02/27 09:44:06;;;;;;;16.38;13.48;;;;;;;;;;5012968;28;20465;-77
2022/02/27 09:46:33;;;;;;;16.83;12.40;;;;;;;;;;5013660;28;20496;-76
2022/02/27 09:48:59;;;;;;;19.67;13.50;;;;;;;;;;5013103;28;20030;-77
2022/02/27 09:51:25;;;;;;;14.05;11.40;;;;;;;;;;5012967;28;20032;-76
2022/02/27 09:53:52;;;;;;;15.48;11.82;;;;;;;;;;5014526;28;20053;-77
2022/02/27 09:56:18;;;;;;;15.63;10.85;;;;;;;;;;5013779;28;20030;-75
2022/02/27 09:58:44;;;;;;;13.90;10.55;;;;;;;;;;5014225;28;20595;-76
2022/02/27 10:01:12;;;;;;;14.63;11.82;;;;;;;;;;5013932;28;20044;-76
2022/02/27 10:03:40;;;;;;;18.88;13.23;;;;;;;;;;5013987;28;20404;-76
2022/02/27 10:06:08;;;;;;;16.20;12.70;;;;;;;;;;5013848;28;20514;-77
2022/02/27 10:08:38;;;;;;;16.67;12.90;;;;;;;;;;5013927;28;20472;-77
2022/02/27 10:11:04;;;;;;;17.17;14.40;;;;;;;;;;5012517;28;20037;-77
2022/02/27 10:13:31;;;;;;;15.40;11.60;;;;;;;;;;5012683;28;20412;-75
2022/02/27 10:16:06;;;;;;;13.30;10.38;;;;;;;;;;5011499;28;20560;-76
2022/02/27 10:18:39;;;;;;;13.85;10.02;;;;;;;;;;5012465;28;20041;-75
2022/02/27 10:21:18;;;;;;;16.58;11.30;;;;;;;;;;5013837;28;20033;-76
2022/02/27 10:23:44;;;;;;;10.98;8.85;;;;;;;;;;5011622;28;20128;-76
2022/02/27 10:26:21;;;;;;;12.15;9.20;;;;;;;;;;5013406;28;20449;-75
2022/02/27 10:29:07;;;;;;;16.45;8.75;;;;;;;;;;5013272;28;20030;-74
2022/02/27 10:31:34;;;;;;;10.65;8.13;;;;;;;;;;5011848;28;20018;-76
2022/02/27 10:34:12;;;;;;;12.77;8.30;;;;;;;;;;5006245;28;20022;-76
2022/02/27 10:36:38;;;;;;;10.40;7.65;;;;;;;;;;5022235;28;20038;-77
2022/02/27 10:39:04;;;;;;;11.10;8.25;;;;;;;;;;5001046;28;20338;-76
2022/02/27 10:41:39;;;;;;;9.85;7.00;;;;;;;;;;5010448;28;20018;-76
2022/02/27 10:44:12;;;;;;;11.02;6.53;;;;;;;;;;5008564;28;20026;-76
2022/02/27 10:46:39;;;;;;;9.93;7.47;;;;;;;;;;5024955;28;20022;-75
2022/02/27 10:49:05;;;;;;;10.02;7.40;;;;;;;;;;5013083;28;20026;-75
2022/02/27 10:51:34;;;;;;;10.95;7.53;;;;;;;;;;5012532;28;20105;-76
2022/02/27 10:54:00;;;;;;;13.75;9.18;;;;;;;;;;5012435;28;20022;-75
2022/02/27 10:56:32;;;;;;;16.25;12.23;;;;;;;;;;5010051;28;20030;-76
2022/02/27 10:58:58;;;;;;;10.07;7.80;;;;;;;;;;5012365;28;20018;-75
2022/02/27 11:01:26;;;;;;;11.77;7.47;;;;;;;;;;4999257;28;20640;-75
2022/02/27 11:03:53;;;;;;;7.78;6.22;;;;;;;;;;5009233;28;20025;-75
2022/02/27 11:06:19;;;;;;;8.57;6.72;;;;;;;;;;5012331;28;20404;-75
2022/02/27 11:08:45;;;;;;;8.68;6.55;;;;;;;;;;5012214;28;20089;-77
2022/02/27 11:11:12;;;;;;;12.10;8.52;;;;;;;;;;5011670;28;20022;-75
2022/02/27 11:13:39;;;;;;;12.80;8.00;;;;;;;;;;5011810;28;20076;-75
2022/02/27 11:16:07;;;;;;;17.15;11.65;;;;;;;;;;5012192;28;20066;-75
2022/02/27 11:18:33;;;;;;;12.73;7.60;;;;;;;;;;5011984;28;20072;-76
2022/02/27 11:20:59;;;;;;;6.70;5.45;;;;;;;;;;5011054;28;20061;-75
2022/02/27 11:23:25;;;;;;;8.55;6.28;;;;;;;;;;5010945;28;20477;-74
2022/02/27 11:25:52;;;;;;;8.85;6.35;;;;;;;;;;5012270;28;20053;-75
2022/02/27 11:28:21;;;;;;;10.35;7.20;;;;;;;;;;5012286;28;20029;-75
2022/02/27 11:30:49;;;;;;;10.70;5.28;;;;;;;;;;5011509;28;20500;-76
2022/02/27 11:33:18;;;;;;;8.75;5.25;;;;;;;;;;5012478;28;20022;-76
2022/02/27 11:35:45;;;;;;;8.82;5.18;;;;;;;;;;5011235;28;20022;-76
2022/02/27 11:38:11;;;;;;;9.48;6.53;;;;;;;;;;5012502;28;20068;-75
2022/02/27 11:40:42;;;;;;;19.35;11.88;;;;;;;;;;5011610;28;20053;-75
2022/02/27 11:43:08;;;;;;;8.55;6.63;;;;;;;;;;5012370;28;20030;-75
2022/02/27 11:45:37;;;;;;;19.40;12.07;;;;;;;;;;5010791;28;20116;-76
2022/02/27 11:48:04;;;;;;;31.75;20.38;;;;;;;;;;5005341;28;20113;-76
2022/02/27 11:50:44;;;;;;;39.88;22.08;;;;;;;;;;5011925;28;20026;-79
2022/02/27 11:53:23;;;;;;;25.00;15.30;;;;;;;;;;5012636;28;20028;-77
2022/02/27 11:55:49;;;;;;;27.98;16.83;;;;;;;;;;5012355;28;20032;-77
2022/02/27 11:58:27;;;;;;;39.78;21.13;;;;;;;;;;5011958;28;20021;-76
2022/02/27 12:00:58;;;;;;;14.98;9.00;;;;;;;;;;5010335;28;20030;-77
2022/02/27 12:03:30;;;;;;;19.17;10.52;;;;;;;;;;5011973;28;20088;-77
2022/02/27 12:06:04;;;;;;;15.40;11.63;;;;;;;;;;5010610;28;20531;-78
2022/02/27 12:08:44;;;;;;;8.05;5.93;;;;;;;;;;5011895;28;20113;-76
2022/02/27 12:11:32;;;;;;;12.50;8.25;;;;;;;;;;5010750;28;20108;-78
2022/02/27 12:14:03;;;;;;;34.78;21.50;;;;;;;;;;5011868;28;20133;-75
2022/02/27 12:16:35;;;;;;;18.63;7.82;;;;;;;;;;5010436;28;20045;-76
2022/02/27 12:19:02;;;;;;;12.35;6.97;;;;;;;;;;5010740;28;20076;-75
2022/02/27 12:21:36;;;;;;;9.85;6.15;;;;;;;;;;5011661;28;20451;-75
2022/02/27 12:24:25;;;;;;;14.05;7.85;;;;;;;;;;5010245;28;20026;-76
2022/02/27 12:26:55;;;;;;;16.08;8.45;;;;;;;;;;5007511;28;20074;-79
2022/02/27 12:29:23;;;;;;;9.23;6.45;;;;;;;;;;5010099;28;20057;-77
2022/02/27 12:31:49;;;;;;;52.33;35.00;;;;;;;;;;5011032;28;20026;-76
2022/02/27 12:34:18;;;;;;;127.10;95.15;;;;;;;;;;5010502;28;20382;-76
2022/02/27 12:36:45;;;;;;;48.78;41.83;;;;;;;;;;5010932;28;20476;-77
2022/02/27 12:39:13;;;;;;;27.02;24.35;;;;;;;;;;5011495;28;20109;-76
2022/02/27 12:41:40;;;;;;;15.30;10.40;;;;;;;;;;5009791;28;20101;-75
2022/02/27 12:44:08;;;;;;;9.90;7.63;;;;;;;;;;5010210;28;20026;-76
2022/02/27 12:46:34;;;;;;;9.30;6.30;;;;;;;;;;5010810;28;20026;-76
2022/02/27 12:51:45;;;;;;;19.23;9.25;;;;;;;;;;5009756;28;20041;-76
2022/02/27 12:54:12;;;;;;;10.15;6.45;;;;;;;;;;5009774;28;20487;-75
2022/02/27 12:56:39;;;;;;;10.00;6.13;;;;;;;;;;5008325;28;20405;-76
2022/02/27 12:59:05;;;;;;;12.10;7.18;;;;;;;;;;5009302;28;20533;-76
2022/02/27 13:01:36;;;;;;;12.40;6.93;;;;;;;;;;5008238;28;20049;-76
2022/02/27 13:04:02;;;;;;;42.67;31.60;;;;;;;;;;5008263;28;20045;-76
2022/02/27 13:06:28;;;;;;;17.63;11.77;;;;;;;;;;5009151;28;20504;-76
2022/02/27 13:08:56;;;;;;;15.82;11.82;;;;;;;;;;5010299;28;20029;-76
2022/02/27 13:11:53;;;;;;;14.80;10.27;;;;;;;;;;5010179;28;20018;-77
2022/02/27 13:14:21;;;;;;;15.50;11.25;;;;;;;;;;5002932;28;20457;-76
2022/02/27 13:16:54;;;;;;;11.70;7.97;;;;;;;;;;5011163;28;20034;-76
2022/02/27 13:19:36;;;;;;;11.50;8.57;;;;;;;;;;5009862;28;20033;-76
2022/02/27 13:22:04;;;;;;;10.10;6.57;;;;;;;;;;5013565;28;20038;-76
2022/02/27 13:24:31;;;;;;;11.27;8.18;;;;;;;;;;5013435;28;20026;-76
2022/02/27 13:26:59;;;;;;;10.55;8.57;;;;;;;;;;5014508;28;20389;-75
2022/02/27 13:29:25;;;;;;;11.48;9.38;;;;;;;;;;5013312;28;20361;-76
2022/02/27 13:31:51;;;;;;;12.07;8.82;;;;;;;;;;5014908;28;20381;-77
2022/02/27 13:34:17;;;;;;;9.85;8.68;;;;;;;;;;5014682;28;20468;-76
2022/02/27 13:36:43;;;;;;;10.07;7.13;;;;;;;;;;5013264;28;20440;-76
2022/02/27 13:39:09;;;;;;;12.82;10.05;;;;;;;;;;5014361;28;20237;-76
2022/02/27 13:41:39;;;;;;;15.40;9.07;;;;;;;;;;5014679;28;20089;-77
2022/02/27 13:44:06;;;;;;;35.55;24.35;;;;;;;;;;5013360;28;20112;-76
2022/02/27 13:46:33;;;;;;;39.03;27.45;;;;;;;;;;5013905;28;20449;-78
2022/02/27 13:49:09;;;;;;;18.73;15.90;;;;;;;;;;5013083;28;20401;-76
2022/02/27 13:51:35;;;;;;;22.55;18.13;;;;;;;;;;5012893;28;20018;-76
2022/02/27 13:54:16;;;;;;;31.67;25.23;;;;;;;;;;5012949;28;20061;-77
2022/02/27 13:56:58;;;;;;;24.27;18.85;;;;;;;;;;5013743;28;20034;-76
2022/02/27 13:59:24;;;;;;;21.77;15.65;;;;;;;;;;5012910;28;20025;-76
2022/02/27 14:02:00;;;;;;;19.15;14.43;;;;;;;;;;5014421;28;20026;-76
2022/02/27 14:04:27;;;;;;;20.73;15.52;;;;;;;;;;5012804;28;20030;-77
2022/02/27 14:06:53;;;;;;;20.60;15.70;;;;;;;;;;5013726;28;20133;-77
2022/02/27 14:09:19;;;;;;;20.55;15.20;;;;;;;;;;5012521;28;20018;-77
2022/02/27 14:11:46;;;;;;;18.00;14.65;;;;;;;;;;5012625;28;20381;-76
2022/02/27 14:14:12;;;;;;;21.23;15.65;;;;;;;;;;5012658;28;20072;-75
2022/02/27 14:16:42;;;;;;;26.23;18.77;;;;;;;;;;5013400;28;20551;-78